Union Center, SD (57787)

9:22 PM MDT on September 22, 2014 (GMT -0600)
Ellsworth Air Force Base | Change Station
CLOSE
Current Station
Airport
Location: Ellsworth AFB,
Elevation: 3278 ft
Nearby Weather Stations

Elev 3278 ft 44.15 °N, 103.10 °W | Updated 24 minutes ago

Overcast
Overcast
65 °F
Feels Like 65 °F
N
7
Wind Variable Wind from SSE

Today
High -- | Low -- °F
--% Chance of Precip.
Yesterday
High -- | Low -- °F
Precip. -- in
6:37 AM 6:48 PM
Waning Crescent, 1% visible
Pressure 29.91 in
Visibility 10.0 miles
Clouds Scattered Clouds 11000 ft
Overcast 15000 ft
Dew Point 56 °F
Humidity 74%
Rainfall 0.00 in
Snow Depth 0 in
UV 0 out of 12
Pollen 5.60 out of 12
Air Quality Not available.
Flu Activity Not available.
METAR KRCA 230258Z 16006KT 10SM SCT110 OVC150 18/13 A2994 RMK AO2A DZE0216 SLP128 P0000 60000 T01820134 52013 $

More Conditions Fewer Conditions

Pressure 29.91 in
Visibility 10.0 miles
Clouds Scattered Clouds 11000 ft
Overcast 15000 ft
Dew Point 56 °F
Humidity 74%
Rainfall 0.00 in
Snow Depth 0 in
UV 0 out of 12
Pollen 5.60 out of 12
Air Quality Not available.
Flu Activity Not available.
METAR KRCA 230258Z 16006KT 10SM SCT110 OVC150 18/13 A2994 RMK AO2A DZE0216 SLP128 P0000 60000 T01820134 52013 $

More Conditions Fewer Conditions

10-Day Weather Forecast

Almanac

Astronomy

Sep. 22, 2014 Rise Set
Actual Time 6:37 AM MDT 6:48 PM MDT
Civil Twilight 6:08 AM MDT 7:17 PM MDT
Nautical Twilight 5:34 AM MDT 7:51 PM MDT
Astronomical Twilight 4:59 AM MDT 8:26 PM MDT
Moon 5:06 AM MDT (9/22) 5:58 PM MDT (9/22)
Length of Visible Light 13h 08m
Length of Day
12h 10m
Tomorrow will be 3m 4s shorter.
Waning Crescent, 1% of the Moon is Illuminated
Today
Waning Crescent
Sep 24
New
Oct 1
First Quarter
Oct 8
Full
Oct 15
Last Quarter

Today's Extremes

State Highs State Lows

Community

WunderPhotos

Upload Photos

1,755,604 photos uploaded!

Nearby

Snow Depth

Station Depth Elevation
Blind Park 0 in 6890 ft

Earthquake Activity

City Distance Mag. Time & Date
No recent earthquake activity has been reported nearby.
Minimum magnitude displayed is 2.5.

Coastal Water Temperatures

Place Temperature
No Stations Reporting

Nearby Weather Stations